Time;durP1;ratioP1;P1;durP2;ratioP2;P2;SDS_P1;SDS_P2;PMS_P1;PMS_P2;Temp;Humidity;BMP_temperature;BMP_pressure;BME280_temperature;BME280_humidity;BME280_pressure;Samples;Min_cycle;Max_cycle;Signal;HPM_P1;HPM_P2
2021/01/07 00:01:19;;;;;;;4.55;3.47;;;;;;;;;;5018452;28;20051;-47
2021/01/07 00:03:45;;;;;;;3.85;3.20;;;;;;;;;;5025095;28;20061;-46
2021/01/07 00:06:11;;;;;;;4.30;3.20;;;;;;;;;;5023585;28;20049;-47
2021/01/07 00:08:38;;;;;;;5.10;3.58;;;;;;;;;;5019316;28;20033;-48
2021/01/07 00:11:04;;;;;;;4.65;3.35;;;;;;;;;;5023608;28;20075;-46
2021/01/07 00:13:30;;;;;;;4.15;3.30;;;;;;;;;;5023599;28;20445;-46
2021/01/07 00:15:56;;;;;;;5.05;3.60;;;;;;;;;;5025785;28;20032;-46
2021/01/07 00:18:22;;;;;;;4.25;3.30;;;;;;;;;;5023048;28;20411;-46
2021/01/07 00:20:48;;;;;;;4.75;3.50;;;;;;;;;;5024267;28;20037;-46
2021/01/07 00:23:14;;;;;;;5.18;3.28;;;;;;;;;;5023249;28;20034;-47
2021/01/07 00:25:41;;;;;;;4.97;3.30;;;;;;;;;;5023403;28;20092;-47
2021/01/07 00:28:07;;;;;;;4.90;3.67;;;;;;;;;;5023606;28;20118;-46
2021/01/07 00:30:33;;;;;;;5.10;3.72;;;;;;;;;;5022441;28;20456;-47
2021/01/07 00:32:58;;;;;;;4.10;3.38;;;;;;;;;;5023916;28;20109;-47
2021/01/07 00:35:24;;;;;;;5.43;3.80;;;;;;;;;;5022512;28;20440;-47
2021/01/07 00:37:50;;;;;;;5.43;3.75;;;;;;;;;;5024180;28;20037;-46
2021/01/07 00:40:17;;;;;;;5.03;3.78;;;;;;;;;;5023393;28;20025;-47
2021/01/07 00:42:42;;;;;;;4.70;3.63;;;;;;;;;;5023626;28;20044;-46
2021/01/07 00:45:09;;;;;;;5.40;3.58;;;;;;;;;;5022964;28;20030;-48
2021/01/07 00:47:35;;;;;;;5.03;3.72;;;;;;;;;;5022452;28;20480;-48
2021/01/07 00:50:00;;;;;;;5.22;3.60;;;;;;;;;;5023584;28;20151;-46
2021/01/07 00:52:26;;;;;;;5.20;3.72;;;;;;;;;;5022500;28;20034;-47
2021/01/07 00:54:53;;;;;;;4.55;3.53;;;;;;;;;;5024306;28;20112;-46
2021/01/07 00:57:18;;;;;;;6.03;3.88;;;;;;;;;;5022745;28;20538;-46
2021/01/07 00:59:44;;;;;;;5.72;3.83;;;;;;;;;;5023499;28;20061;-47
2021/01/07 01:02:10;;;;;;;5.25;3.65;;;;;;;;;;5022479;28;20034;-47
2021/01/07 01:04:36;;;;;;;5.13;3.80;;;;;;;;;;5022349;28;20018;-46
2021/01/07 01:07:03;;;;;;;4.65;3.63;;;;;;;;;;5022248;28;20463;-47
2021/01/07 01:09:29;;;;;;;4.28;3.65;;;;;;;;;;5021543;28;20026;-47
2021/01/07 01:11:55;;;;;;;4.68;3.60;;;;;;;;;;5023057;28;20033;-47
2021/01/07 01:14:21;;;;;;;5.95;4.10;;;;;;;;;;5021281;28;20030;-47
2021/01/07 01:16:47;;;;;;;4.95;3.70;;;;;;;;;;5020215;28;20048;-47
2021/01/07 01:19:14;;;;;;;4.70;3.55;;;;;;;;;;5021558;28;20030;-47
2021/01/07 01:21:40;;;;;;;4.90;3.60;;;;;;;;;;5019192;28;20034;-46
2021/01/07 01:24:06;;;;;;;6.25;4.03;;;;;;;;;;5023019;28;20033;-47
2021/01/07 01:26:32;;;;;;;5.30;3.80;;;;;;;;;;5021329;28;20037;-46
2021/01/07 01:28:58;;;;;;;5.30;3.78;;;;;;;;;;5022730;28;20059;-47
2021/01/07 01:31:24;;;;;;;4.20;3.53;;;;;;;;;;5021491;28;20040;-47
2021/01/07 01:33:50;;;;;;;5.55;3.95;;;;;;;;;;5024053;28;20391;-47
2021/01/07 01:36:16;;;;;;;4.40;3.53;;;;;;;;;;5022176;28;20033;-47
2021/01/07 01:38:42;;;;;;;5.38;3.75;;;;;;;;;;5022530;28;20026;-47
2021/01/07 01:41:08;;;;;;;5.43;3.78;;;;;;;;;;5021486;28;20538;-47
2021/01/07 01:43:34;;;;;;;5.35;3.63;;;;;;;;;;5021366;28;20030;-47
2021/01/07 01:46:00;;;;;;;5.18;3.63;;;;;;;;;;5022594;28;20021;-46
2021/01/07 01:48:26;;;;;;;5.18;3.97;;;;;;;;;;5021170;28;20033;-47
2021/01/07 01:50:53;;;;;;;4.78;3.63;;;;;;;;;;5019692;28;20030;-46
2021/01/07 01:53:19;;;;;;;5.50;4.10;;;;;;;;;;5021638;28;20052;-46
2021/01/07 01:55:45;;;;;;;5.05;3.90;;;;;;;;;;5023007;28;20034;-46
2021/01/07 01:58:12;;;;;;;5.70;3.78;;;;;;;;;;5021466;28;20175;-47
2021/01/07 02:00:38;;;;;;;5.75;3.90;;;;;;;;;;5018400;28;20052;-47
2021/01/07 02:03:07;;;;;;;5.05;3.80;;;;;;;;;;5021978;28;20030;-47
2021/01/07 02:05:34;;;;;;;5.20;3.67;;;;;;;;;;5020742;28;20164;-48
2021/01/07 02:08:00;;;;;;;6.65;4.35;;;;;;;;;;5022110;28;20036;-46
2021/01/07 02:10:26;;;;;;;5.82;3.95;;;;;;;;;;5004204;28;20064;-46
2021/01/07 02:12:52;;;;;;;5.85;4.30;;;;;;;;;;5019494;28;20029;-47
2021/01/07 02:15:18;;;;;;;6.15;4.28;;;;;;;;;;5021480;28;20480;-46
2021/01/07 02:17:44;;;;;;;5.80;4.18;;;;;;;;;;5022237;28;20109;-47
2021/01/07 02:20:11;;;;;;;5.90;3.92;;;;;;;;;;5021649;28;20111;-47
2021/01/07 02:22:37;;;;;;;6.03;3.88;;;;;;;;;;5017827;28;20041;-47
2021/01/07 02:25:03;;;;;;;5.72;3.97;;;;;;;;;;5022761;28;20040;-46
2021/01/07 02:27:29;;;;;;;6.63;4.28;;;;;;;;;;5019446;28;20415;-47
2021/01/07 02:29:55;;;;;;;6.22;4.00;;;;;;;;;;5022110;28;20025;-47
2021/01/07 02:32:21;;;;;;;5.28;3.83;;;;;;;;;;5020328;28;20192;-49
2021/01/07 02:34:47;;;;;;;5.88;4.30;;;;;;;;;;5023247;28;20037;-48
2021/01/07 02:37:13;;;;;;;6.60;4.28;;;;;;;;;;5038441;28;20022;-47
2021/01/07 02:39:39;;;;;;;5.68;3.88;;;;;;;;;;5021437;28;20029;-47
2021/01/07 02:42:05;;;;;;;6.47;4.45;;;;;;;;;;5021591;28;20379;-47
2021/01/07 02:44:31;;;;;;;6.20;4.53;;;;;;;;;;5020948;28;20473;-48
2021/01/07 02:46:57;;;;;;;6.53;4.43;;;;;;;;;;5021616;28;20048;-47
2021/01/07 02:49:23;;;;;;;6.13;4.35;;;;;;;;;;5020734;28;20495;-47
2021/01/07 02:51:49;;;;;;;7.00;4.45;;;;;;;;;;5022169;28;20033;-48
2021/01/07 02:54:15;;;;;;;7.18;4.53;;;;;;;;;;5021242;28;20045;-47
2021/01/07 02:56:41;;;;;;;7.00;4.75;;;;;;;;;;5021458;28;20029;-47
2021/01/07 02:59:07;;;;;;;6.75;4.60;;;;;;;;;;5021508;28;20473;-48
2021/01/07 03:01:33;;;;;;;7.55;4.70;;;;;;;;;;5020424;28;20030;-48
2021/01/07 03:03:59;;;;;;;7.45;5.10;;;;;;;;;;5022176;28;20550;-47
2021/01/07 03:06:25;;;;;;;6.25;4.65;;;;;;;;;;5020206;28;20018;-47
2021/01/07 03:08:51;;;;;;;6.35;4.68;;;;;;;;;;5022082;28;20057;-47
2021/01/07 03:11:17;;;;;;;6.30;4.38;;;;;;;;;;5021207;28;20461;-47
2021/01/07 03:13:43;;;;;;;6.45;4.55;;;;;;;;;;5021610;28;20381;-46
2021/01/07 03:16:09;;;;;;;6.97;4.18;;;;;;;;;;5021010;28;20022;-47
2021/01/07 03:18:35;;;;;;;4.72;3.55;;;;;;;;;;5020433;28;20030;-47
2021/01/07 03:21:01;;;;;;;4.95;3.55;;;;;;;;;;5021439;28;20021;-46
2021/01/07 03:23:27;;;;;;;5.28;3.30;;;;;;;;;;5020115;28;20033;-47
2021/01/07 03:25:53;;;;;;;5.30;3.22;;;;;;;;;;5021554;28;20060;-47
2021/01/07 03:28:19;;;;;;;4.90;3.30;;;;;;;;;;5020935;28;20029;-47
2021/01/07 03:30:45;;;;;;;4.68;3.30;;;;;;;;;;5024888;28;20022;-47
2021/01/07 03:33:11;;;;;;;4.78;3.33;;;;;;;;;;5024224;28;20053;-47
2021/01/07 03:35:37;;;;;;;4.65;3.25;;;;;;;;;;5023712;28;20030;-46
2021/01/07 03:38:03;;;;;;;5.78;3.40;;;;;;;;;;5024726;28;20036;-47
2021/01/07 03:40:29;;;;;;;4.32;3.20;;;;;;;;;;5023155;28;20103;-47
2021/01/07 03:42:55;;;;;;;6.00;3.63;;;;;;;;;;5024833;28;20375;-47
2021/01/07 03:45:21;;;;;;;4.78;3.30;;;;;;;;;;5023071;28;20125;-46
2021/01/07 03:47:47;;;;;;;5.18;3.38;;;;;;;;;;5040982;28;20026;-46
2021/01/07 03:50:13;;;;;;;4.90;3.67;;;;;;;;;;5024553;28;20026;-47
2021/01/07 03:52:39;;;;;;;4.78;3.35;;;;;;;;;;5023994;28;20540;-47
2021/01/07 03:55:06;;;;;;;6.72;4.20;;;;;;;;;;5024775;28;20104;-47
2021/01/07 03:57:32;;;;;;;5.65;4.20;;;;;;;;;;5023669;28;20029;-46
2021/01/07 03:59:58;;;;;;;7.38;4.75;;;;;;;;;;5024468;28;20029;-47
2021/01/07 04:02:24;;;;;;;5.53;3.80;;;;;;;;;;5023516;28;20036;-46
2021/01/07 04:04:50;;;;;;;5.75;4.05;;;;;;;;;;5024813;28;20022;-47
2021/01/07 04:07:16;;;;;;;6.85;4.20;;;;;;;;;;5023825;28;20513;-47
2021/01/07 04:09:41;;;;;;;4.72;3.53;;;;;;;;;;5024331;28;20166;-47
2021/01/07 04:12:07;;;;;;;6.07;4.00;;;;;;;;;;5024016;28;20057;-46
2021/01/07 04:14:33;;;;;;;6.40;4.20;;;;;;;;;;5038279;28;20489;-46
2021/01/07 04:16:59;;;;;;;7.20;4.70;;;;;;;;;;5024545;28;20018;-47
2021/01/07 04:19:25;;;;;;;5.97;4.10;;;;;;;;;;5022918;28;20171;-47
2021/01/07 04:21:51;;;;;;;6.45;4.50;;;;;;;;;;5021072;28;20040;-48
2021/01/07 04:24:17;;;;;;;6.32;4.60;;;;;;;;;;5023257;28;20067;-48
2021/01/07 04:26:43;;;;;;;7.40;4.57;;;;;;;;;;5023836;28;20033;-47
2021/01/07 04:29:10;;;;;;;7.30;4.60;;;;;;;;;;5023611;28;20492;-47
2021/01/07 04:31:35;;;;;;;6.45;4.50;;;;;;;;;;5019839;28;20468;-47
2021/01/07 04:34:02;;;;;;;6.35;4.53;;;;;;;;;;5024917;28;20033;-47
2021/01/07 04:36:27;;;;;;;7.63;5.05;;;;;;;;;;5022156;28;20030;-47
2021/01/07 04:38:54;;;;;;;7.40;5.13;;;;;;;;;;5022281;28;20487;-47
2021/01/07 04:41:20;;;;;;;6.85;4.72;;;;;;;;;;5023165;28;20476;-47
2021/01/07 04:43:46;;;;;;;7.70;4.82;;;;;;;;;;5021020;28;20033;-48
2021/01/07 04:46:12;;;;;;;7.07;4.63;;;;;;;;;;5023482;28;20648;-47
2021/01/07 04:48:39;;;;;;;8.20;4.75;;;;;;;;;;5019727;28;20026;-47
2021/01/07 04:51:05;;;;;;;7.80;4.97;;;;;;;;;;5023637;28;20018;-47
2021/01/07 04:53:31;;;;;;;7.47;4.82;;;;;;;;;;5021676;28;20105;-47
2021/01/07 04:55:57;;;;;;;7.05;4.85;;;;;;;;;;5023204;28;20516;-47
2021/01/07 04:58:23;;;;;;;7.57;5.10;;;;;;;;;;5022557;28;20021;-47
2021/01/07 05:00:49;;;;;;;7.55;4.80;;;;;;;;;;5024416;28;20113;-47
2021/01/07 05:03:24;;;;;;;6.90;4.85;;;;;;;;;;5022581;28;20026;-47
2021/01/07 05:05:51;;;;;;;8.55;5.80;;;;;;;;;;5020487;28;20109;-47
2021/01/07 05:08:18;;;;;;;8.07;5.45;;;;;;;;;;5021509;28;20017;-48
2021/01/07 05:10:44;;;;;;;7.90;5.20;;;;;;;;;;5023152;28;20029;-47
2021/01/07 05:13:10;;;;;;;8.23;5.63;;;;;;;;;;5021088;28;20030;-48
2021/01/07 05:15:39;;;;;;;7.82;5.50;;;;;;;;;;5022076;28;20447;-47
2021/01/07 05:18:06;;;;;;;7.97;5.85;;;;;;;;;;5022933;28;20480;-47
2021/01/07 05:20:32;;;;;;;9.25;6.38;;;;;;;;;;5021572;28;20026;-47
2021/01/07 05:23:00;;;;;;;8.63;6.10;;;;;;;;;;5022882;28;20499;-47
2021/01/07 05:25:29;;;;;;;9.68;6.50;;;;;;;;;;5021776;28;20479;-48
2021/01/07 05:27:55;;;;;;;8.82;5.65;;;;;;;;;;5021885;28;20025;-48
2021/01/07 05:30:21;;;;;;;10.30;6.30;;;;;;;;;;5021076;28;20101;-47
2021/01/07 05:32:47;;;;;;;9.90;6.63;;;;;;;;;;5023305;28;20065;-48
2021/01/07 05:35:16;;;;;;;10.45;6.80;;;;;;;;;;5022592;28;20416;-47
2021/01/07 05:37:42;;;;;;;10.02;7.25;;;;;;;;;;5019333;28;20038;-48
2021/01/07 05:40:09;;;;;;;10.02;6.85;;;;;;;;;;5022365;28;20611;-47
2021/01/07 05:42:41;;;;;;;10.65;7.40;;;;;;;;;;5021332;28;20038;-47
2021/01/07 05:45:10;;;;;;;11.45;7.60;;;;;;;;;;5022340;28;20036;-47
2021/01/07 05:47:43;;;;;;;10.65;7.47;;;;;;;;;;5021415;28;20030;-47
2021/01/07 05:50:09;;;;;;;11.23;7.60;;;;;;;;;;5020911;28;20037;-47
2021/01/07 05:52:35;;;;;;;10.98;7.88;;;;;;;;;;5020977;28;20026;-47
2021/01/07 05:55:01;;;;;;;13.77;8.98;;;;;;;;;;5005814;28;20045;-47
2021/01/07 05:57:29;;;;;;;11.30;8.13;;;;;;;;;;5020830;28;20104;-46
2021/01/07 05:59:55;;;;;;;13.15;9.32;;;;;;;;;;5020803;28;20026;-47
2021/01/07 06:02:21;;;;;;;11.57;7.80;;;;;;;;;;5027740;28;20550;-48
2021/01/07 06:04:48;;;;;;;12.13;7.70;;;;;;;;;;5018577;28;20017;-47
2021/01/07 06:07:17;;;;;;;10.77;7.45;;;;;;;;;;5035833;28;20026;-47
2021/01/07 06:09:43;;;;;;;12.18;7.75;;;;;;;;;;5022538;28;20413;-47
2021/01/07 06:12:09;;;;;;;11.98;7.97;;;;;;;;;;5020633;28;20040;-47
2021/01/07 06:14:35;;;;;;;11.40;8.00;;;;;;;;;;5017961;28;20045;-47
2021/01/07 06:17:01;;;;;;;12.38;7.95;;;;;;;;;;5021405;28;20029;-47
2021/01/07 06:19:31;;;;;;;11.43;7.90;;;;;;;;;;5019641;28;20025;-47
2021/01/07 06:21:58;;;;;;;10.88;7.30;;;;;;;;;;5020302;28;20063;-46
2021/01/07 06:24:33;;;;;;;11.30;7.97;;;;;;;;;;5018457;28;20022;-47
2021/01/07 06:27:18;;;;;;;11.00;7.60;;;;;;;;;;5017893;28;20112;-47
2021/01/07 06:29:44;;;;;;;11.00;7.45;;;;;;;;;;5020901;28;20026;-48
2021/01/07 06:32:10;;;;;;;10.85;7.47;;;;;;;;;;5020298;28;20397;-47
2021/01/07 06:34:39;;;;;;;11.30;7.95;;;;;;;;;;5018132;28;20084;-47
2021/01/07 06:37:05;;;;;;;11.60;7.60;;;;;;;;;;5021573;28;20029;-48
2021/01/07 06:39:31;;;;;;;10.43;7.60;;;;;;;;;;5021138;28;20030;-47
2021/01/07 06:41:58;;;;;;;11.30;7.80;;;;;;;;;;5020603;28;20037;-46
2021/01/07 06:44:24;;;;;;;11.43;8.50;;;;;;;;;;5019827;28;20067;-47
2021/01/07 06:46:50;;;;;;;11.85;8.30;;;;;;;;;;5019073;28;20034;-47
2021/01/07 06:49:20;;;;;;;11.38;8.57;;;;;;;;;;5021365;28;20079;-47
2021/01/07 06:51:51;;;;;;;12.57;9.05;;;;;;;;;;5022093;28;20530;-47
2021/01/07 06:54:17;;;;;;;12.05;8.07;;;;;;;;;;5020494;28;20026;-47
2021/01/07 06:56:43;;;;;;;12.23;8.43;;;;;;;;;;5021831;28;20029;-47
2021/01/07 06:59:11;;;;;;;13.90;9.48;;;;;;;;;;5020173;28;20077;-47
2021/01/07 07:01:37;;;;;;;12.98;8.98;;;;;;;;;;5018154;28;20440;-46
2021/01/07 07:04:03;;;;;;;12.13;8.85;;;;;;;;;;5021499;28;20025;-46
2021/01/07 07:06:29;;;;;;;13.85;9.05;;;;;;;;;;5023923;28;20018;-46
2021/01/07 07:08:55;;;;;;;12.05;8.77;;;;;;;;;;5025608;28;20022;-47
2021/01/07 07:11:29;;;;;;;13.43;9.38;;;;;;;;;;5023743;28;20052;-47
2021/01/07 07:13:55;;;;;;;12.95;9.02;;;;;;;;;;5023999;28;20025;-47
2021/01/07 07:16:21;;;;;;;14.77;10.32;;;;;;;;;;5030179;28;20104;-47
2021/01/07 07:18:47;;;;;;;12.63;8.52;;;;;;;;;;5026154;28;20022;-47
2021/01/07 07:21:14;;;;;;;13.75;9.60;;;;;;;;;;5025790;28;20476;-48
2021/01/07 07:23:40;;;;;;;13.23;9.05;;;;;;;;;;5026222;28;20033;-47
2021/01/07 07:26:06;;;;;;;13.25;8.90;;;;;;;;;;5025706;28;20030;-48
2021/01/07 07:28:31;;;;;;;13.25;9.07;;;;;;;;;;5024873;28;20044;-47
2021/01/07 07:30:57;;;;;;;12.77;9.23;;;;;;;;;;5024621;28;20029;-47
2021/01/07 07:33:36;;;;;;;14.07;9.85;;;;;;;;;;5026362;28;20078;-48
2021/01/07 07:36:02;;;;;;;13.68;9.43;;;;;;;;;;5024541;28;20412;-48
2021/01/07 07:38:41;;;;;;;14.48;9.63;;;;;;;;;;5023088;28;20496;-47
2021/01/07 07:41:11;;;;;;;14.05;10.10;;;;;;;;;;5023644;28;20092;-47
2021/01/07 07:43:37;;;;;;;13.50;9.10;;;;;;;;;;5040832;28;20030;-47
2021/01/07 07:46:03;;;;;;;12.68;9.32;;;;;;;;;;5024467;28;20035;-47
2021/01/07 07:48:30;;;;;;;13.38;9.43;;;;;;;;;;5025124;28;20017;-48
2021/01/07 07:51:12;;;;;;;13.05;8.93;;;;;;;;;;5019807;28;20596;-48
2021/01/07 07:53:38;;;;;;;12.90;9.30;;;;;;;;;;5028734;28;20025;-47
2021/01/07 07:56:04;;;;;;;12.02;8.43;;;;;;;;;;5024703;28;20109;-48
2021/01/07 07:58:30;;;;;;;10.85;7.75;;;;;;;;;;5025561;28;20096;-47
2021/01/07 08:00:59;;;;;;;10.90;7.25;;;;;;;;;;5022643;28;20065;-48
2021/01/07 08:03:29;;;;;;;10.50;7.25;;;;;;;;;;5025225;28;20061;-47
2021/01/07 08:05:58;;;;;;;10.00;7.13;;;;;;;;;;5022275;28;20026;-47
2021/01/07 08:08:25;;;;;;;9.35;6.60;;;;;;;;;;5024975;28;20021;-48
2021/01/07 08:10:51;;;;;;;10.32;6.82;;;;;;;;;;5021657;28;20133;-47
2021/01/07 08:13:20;;;;;;;8.20;5.93;;;;;;;;;;5024844;28;20028;-47
2021/01/07 08:15:47;;;;;;;9.90;6.68;;;;;;;;;;5026122;28;20105;-47
2021/01/07 08:18:14;;;;;;;9.13;6.18;;;;;;;;;;5023728;28;20022;-48
2021/01/07 08:20:40;;;;;;;8.15;5.55;;;;;;;;;;5022972;28;20413;-47
2021/01/07 08:23:10;;;;;;;9.25;6.25;;;;;;;;;;5024103;28;20034;-47
2021/01/07 08:25:36;;;;;;;9.85;6.15;;;;;;;;;;5021954;28;20041;-48
2021/01/07 08:28:21;;;;;;;9.27;6.35;;;;;;;;;;5022428;28;20034;-47
2021/01/07 08:30:58;;;;;;;8.45;5.80;;;;;;;;;;5016296;28;20037;-48
2021/01/07 08:33:24;;;;;;;8.10;5.43;;;;;;;;;;5023097;28;20033;-49
2021/01/07 08:35:50;;;;;;;8.85;5.78;;;;;;;;;;5021303;28;20108;-47
2021/01/07 08:38:23;;;;;;;9.18;5.93;;;;;;;;;;5022930;28;20075;-47
2021/01/07 08:40:49;;;;;;;9.30;5.78;;;;;;;;;;5022409;28;20034;-47
2021/01/07 08:43:15;;;;;;;8.73;5.60;;;;;;;;;;5023505;28;20383;-49
2021/01/07 08:45:41;;;;;;;7.82;4.97;;;;;;;;;;5023105;28;20021;-47
2021/01/07 08:48:07;;;;;;;8.00;5.22;;;;;;;;;;5024037;28;20026;-48
2021/01/07 08:50:33;;;;;;;8.05;4.78;;;;;;;;;;5024398;28;20105;-48
2021/01/07 08:52:59;;;;;;;7.10;4.68;;;;;;;;;;5022281;28;20022;-47
2021/01/07 08:55:44;;;;;;;6.97;4.60;;;;;;;;;;5024211;28;20945;-47
2021/01/07 08:58:10;;;;;;;6.20;4.28;;;;;;;;;;5022607;28;20045;-48
2021/01/07 09:00:36;;;;;;;6.28;4.20;;;;;;;;;;5024486;28;20403;-48
2021/01/07 09:03:02;;;;;;;5.50;3.80;;;;;;;;;;5022572;28;20033;-48
2021/01/07 09:05:29;;;;;;;8.48;4.80;;;;;;;;;;5021511;28;20509;-48
2021/01/07 09:08:10;;;;;;;6.05;4.05;;;;;;;;;;5021060;28;20675;-47
2021/01/07 09:10:37;;;;;;;6.03;4.35;;;;;;;;;;5023806;28;20437;-48
2021/01/07 09:13:22;;;;;;;6.20;4.07;;;;;;;;;;5020613;28;20022;-47
2021/01/07 09:15:48;;;;;;;6.95;3.85;;;;;;;;;;5023744;28;20064;-48
2021/01/07 09:18:17;;;;;;;6.03;4.15;;;;;;;;;;5020897;28;20113;-48
2021/01/07 09:20:43;;;;;;;6.00;4.45;;;;;;;;;;5022368;28;20025;-48
2021/01/07 09:23:10;;;;;;;6.60;4.00;;;;;;;;;;5021763;28;20030;-47
2021/01/07 09:25:36;;;;;;;6.20;4.35;;;;;;;;;;5023244;28;20048;-47
2021/01/07 09:28:02;;;;;;;6.60;4.43;;;;;;;;;;5007420;28;20099;-47
2021/01/07 09:30:28;;;;;;;5.80;4.13;;;;;;;;;;5021684;28;20380;-46
2021/01/07 09:32:54;;;;;;;6.00;4.20;;;;;;;;;;5023493;28;20033;-46
2021/01/07 09:35:20;;;;;;;6.53;4.47;;;;;;;;;;5030119;28;20029;-46
2021/01/07 09:37:46;;;;;;;5.63;4.45;;;;;;;;;;5021701;28;20034;-47
2021/01/07 09:40:12;;;;;;;7.65;4.97;;;;;;;;;;5022068;28;20029;-47
2021/01/07 09:42:39;;;;;;;6.53;4.65;;;;;;;;;;5022749;28;20095;-47
2021/01/07 09:45:06;;;;;;;7.20;5.03;;;;;;;;;;5021672;28;20034;-47
2021/01/07 09:47:32;;;;;;;6.63;4.65;;;;;;;;;;5022841;28;20032;-47
2021/01/07 09:49:58;;;;;;;6.80;4.85;;;;;;;;;;5020231;28;20076;-47
2021/01/07 09:52:25;;;;;;;7.63;5.28;;;;;;;;;;5023184;28;20021;-47
2021/01/07 09:54:51;;;;;;;6.57;4.85;;;;;;;;;;5020892;28;20034;-47
2021/01/07 09:57:17;;;;;;;6.68;4.90;;;;;;;;;;5019901;28;20040;-47
2021/01/07 09:59:43;;;;;;;8.07;5.57;;;;;;;;;;5022405;28;20029;-47
2021/01/07 10:02:09;;;;;;;7.82;5.70;;;;;;;;;;5021799;28;20022;-47
2021/01/07 10:04:35;;;;;;;9.45;6.38;;;;;;;;;;5021504;28;20030;-47
2021/01/07 10:07:01;;;;;;;8.48;5.88;;;;;;;;;;5022682;28;20037;-48
2021/01/07 10:09:27;;;;;;;8.73;6.18;;;;;;;;;;5022996;28;20029;-49
2021/01/07 10:11:54;;;;;;;8.45;5.85;;;;;;;;;;5018928;28;20037;-48
2021/01/07 10:14:20;;;;;;;8.18;5.90;;;;;;;;;;5022176;28;20030;-49
2021/01/07 10:16:47;;;;;;;9.00;6.13;;;;;;;;;;5019890;28;20384;-48
2021/01/07 10:19:13;;;;;;;9.32;6.55;;;;;;;;;;5020503;28;20030;-48
2021/01/07 10:21:39;;;;;;;9.45;6.57;;;;;;;;;;5022605;28;20120;-48
2021/01/07 10:24:05;;;;;;;9.25;6.50;;;;;;;;;;5021830;28;20109;-48
2021/01/07 10:26:31;;;;;;;9.70;6.43;;;;;;;;;;5022249;28;20030;-48
2021/01/07 10:28:57;;;;;;;10.02;7.05;;;;;;;;;;5018864;28;20030;-48
2021/01/07 10:31:23;;;;;;;11.73;7.60;;;;;;;;;;5021363;28;20017;-50
2021/01/07 10:33:49;;;;;;;10.90;7.25;;;;;;;;;;5020585;28;20038;-48
2021/01/07 10:36:16;;;;;;;10.38;7.47;;;;;;;;;;5020231;28;20029;-49
2021/01/07 10:38:42;;;;;;;10.45;7.95;;;;;;;;;;5023686;28;20025;-48
2021/01/07 10:41:08;;;;;;;13.35;9.25;;;;;;;;;;5025282;28;20417;-48
2021/01/07 10:43:34;;;;;;;16.85;12.63;;;;;;;;;;5040481;28;20080;-48
2021/01/07 10:46:00;;;;;;;14.23;10.45;;;;;;;;;;5025957;28;20030;-47
2021/01/07 10:48:27;;;;;;;13.52;10.05;;;;;;;;;;5026541;28;20036;-50
2021/01/07 10:50:53;;;;;;;12.73;9.57;;;;;;;;;;5023414;28;20018;-48
2021/01/07 10:53:31;;;;;;;13.15;10.10;;;;;;;;;;5019327;28;20464;-49
2021/01/07 10:56:04;;;;;;;13.68;10.05;;;;;;;;;;5039114;28;20041;-48
2021/01/07 10:58:35;;;;;;;13.35;10.45;;;;;;;;;;5026290;28;20021;-51
2021/01/07 11:01:00;;;;;;;12.82;9.75;;;;;;;;;;5024994;28;20025;-48
2021/01/07 11:03:42;;;;;;;14.75;11.32;;;;;;;;;;5026667;28;20048;-49
2021/01/07 11:06:08;;;;;;;17.33;12.85;;;;;;;;;;5043171;28;20080;-48
2021/01/07 11:08:34;;;;;;;16.75;12.90;;;;;;;;;;5031107;28;20021;-48
2021/01/07 11:11:00;;;;;;;18.20;14.50;;;;;;;;;;5041818;28;20022;-48
2021/01/07 11:13:32;;;;;;;17.92;12.65;;;;;;;;;;5022022;28;20375;-48
2021/01/07 11:15:58;;;;;;;21.05;16.70;;;;;;;;;;5025082;28;20029;-48
2021/01/07 11:18:31;;;;;;;16.38;13.02;;;;;;;;;;5024566;28;20117;-49
2021/01/07 11:21:01;;;;;;;14.68;11.30;;;;;;;;;;5029819;28;20725;-48
2021/01/07 11:23:27;;;;;;;14.93;11.15;;;;;;;;;;5026347;28;20095;-47
2021/01/07 11:25:53;;;;;;;14.48;10.63;;;;;;;;;;5022912;28;20022;-48
2021/01/07 11:28:19;;;;;;;14.32;10.48;;;;;;;;;;5021781;28;20022;-48
2021/01/07 11:30:45;;;;;;;13.52;10.27;;;;;;;;;;5020515;28;20049;-48
2021/01/07 11:33:11;;;;;;;15.00;10.35;;;;;;;;;;5031730;28;20037;-48
2021/01/07 11:35:38;;;;;;;13.82;10.05;;;;;;;;;;5026826;28;20412;-49
2021/01/07 11:38:04;;;;;;;12.70;9.85;;;;;;;;;;5023111;28;20043;-47
2021/01/07 11:40:49;;;;;;;12.50;9.40;;;;;;;;;;5026305;28;20487;-46
2021/01/07 11:43:21;;;;;;;12.52;9.07;;;;;;;;;;5027931;28;20041;-48
2021/01/07 11:45:50;;;;;;;12.82;9.45;;;;;;;;;;5025902;28;20151;-49
2021/01/07 11:48:17;;;;;;;12.75;9.90;;;;;;;;;;5023163;28;20048;-46
2021/01/07 11:50:44;;;;;;;12.85;9.30;;;;;;;;;;5010730;28;20026;-46
2021/01/07 11:53:10;;;;;;;12.35;9.20;;;;;;;;;;5024583;28;20088;-48
2021/01/07 11:55:36;;;;;;;13.88;9.65;;;;;;;;;;5012133;28;20029;-47
2021/01/07 11:58:02;;;;;;;13.18;10.00;;;;;;;;;;5004546;28;20373;-48
2021/01/07 12:00:28;;;;;;;13.23;10.23;;;;;;;;;;5021057;28;20063;-47
2021/01/07 12:02:54;;;;;;;13.90;9.52;;;;;;;;;;5021578;28;20058;-50
2021/01/07 12:05:22;;;;;;;11.70;8.80;;;;;;;;;;5024180;28;20480;-49
2021/01/07 12:07:51;;;;;;;11.60;9.00;;;;;;;;;;5022723;28;20022;-48
2021/01/07 12:10:18;;;;;;;11.52;8.35;;;;;;;;;;5023858;28;20026;-50
2021/01/07 12:12:48;;;;;;;12.77;9.35;;;;;;;;;;5022886;28;20022;-47
2021/01/07 12:15:15;;;;;;;12.55;9.02;;;;;;;;;;5022793;28;20022;-46
2021/01/07 12:17:41;;;;;;;14.13;10.75;;;;;;;;;;5024028;28;20021;-47
2021/01/07 12:20:08;;;;;;;16.90;14.02;;;;;;;;;;5021803;28;20061;-47
2021/01/07 12:22:34;;;;;;;14.77;11.88;;;;;;;;;;5037503;28;20058;-47
2021/01/07 12:25:00;;;;;;;12.93;9.55;;;;;;;;;;5025165;28;20056;-49
2021/01/07 12:27:26;;;;;;;11.52;8.77;;;;;;;;;;5027101;28;20026;-52
2021/01/07 12:29:52;;;;;;;12.60;9.40;;;;;;;;;;5021857;28;20066;-51
2021/01/07 12:32:27;;;;;;;12.60;9.25;;;;;;;;;;5022714;28;20072;-50
2021/01/07 12:35:11;;;;;;;12.05;8.95;;;;;;;;;;5019397;28;20022;-53
2021/01/07 12:38:06;;;;;;;11.45;8.52;;;;;;;;;;5021760;28;20106;-53
2021/01/07 12:40:34;;;;;;;12.43;8.60;;;;;;;;;;4994812;28;20037;-53
2021/01/07 12:43:00;;;;;;;19.08;13.32;;;;;;;;;;5021529;28;20028;-54
2021/01/07 12:45:26;;;;;;;11.75;8.07;;;;;;;;;;5039276;28;20037;-53
2021/01/07 12:47:52;;;;;;;12.80;9.40;;;;;;;;;;5007556;28;20033;-49
2021/01/07 12:50:18;;;;;;;12.38;8.82;;;;;;;;;;5020458;28;20029;-50
2021/01/07 12:52:44;;;;;;;12.93;9.23;;;;;;;;;;5036566;28;20391;-49
2021/01/07 12:55:10;;;;;;;14.40;10.38;;;;;;;;;;5027115;28;20037;-51
2021/01/07 12:57:51;;;;;;;13.88;10.85;;;;;;;;;;5021809;28;20026;-52
2021/01/07 13:00:19;;;;;;;13.77;10.13;;;;;;;;;;5038004;28;20139;-52
2021/01/07 13:02:45;;;;;;;11.93;8.45;;;;;;;;;;5019168;28;20030;-49
2021/01/07 13:05:27;;;;;;;11.25;8.00;;;;;;;;;;5023121;28;20506;-49
2021/01/07 13:07:54;;;;;;;8.73;6.15;;;;;;;;;;5021599;28;20487;-49
2021/01/07 13:10:22;;;;;;;10.73;6.32;;;;;;;;;;5021526;28;20128;-51
2021/01/07 13:12:48;;;;;;;9.98;7.03;;;;;;;;;;5024291;28;20480;-53
2021/01/07 13:15:14;;;;;;;8.98;6.30;;;;;;;;;;5020805;28;20037;-51
2021/01/07 13:17:43;;;;;;;11.20;8.00;;;;;;;;;;5036687;28;20033;-49
2021/01/07 13:20:09;;;;;;;8.57;5.97;;;;;;;;;;5022439;28;20112;-49
2021/01/07 13:22:36;;;;;;;12.80;8.95;;;;;;;;;;5020258;28;20373;-51
2021/01/07 13:25:02;;;;;;;12.55;8.43;;;;;;;;;;5022931;28;20587;-52
2021/01/07 13:27:28;;;;;;;12.93;8.85;;;;;;;;;;5021876;28;20388;-51
2021/01/07 13:29:54;;;;;;;10.60;7.07;;;;;;;;;;5019141;28;20101;-50
2021/01/07 13:32:21;;;;;;;10.60;7.40;;;;;;;;;;5021838;28;20017;-53
2021/01/07 13:34:47;;;;;;;9.88;7.03;;;;;;;;;;5005029;28;20021;-51
2021/01/07 13:37:16;;;;;;;11.13;8.40;;;;;;;;;;5018901;28;20532;-53
2021/01/07 13:39:42;;;;;;;11.73;7.45;;;;;;;;;;5038280;28;20076;-49
2021/01/07 13:42:08;;;;;;;10.70;7.07;;;;;;;;;;5010065;28;20022;-53
2021/01/07 13:44:34;;;;;;;12.88;8.50;;;;;;;;;;5038365;28;20039;-52
2021/01/07 13:47:01;;;;;;;17.30;12.75;;;;;;;;;;5020299;28;20027;-53
2021/01/07 13:49:27;;;;;;;12.65;8.65;;;;;;;;;;5021688;28;20022;-50
2021/01/07 13:51:54;;;;;;;16.77;11.90;;;;;;;;;;5037494;28;20095;-52
2021/01/07 13:54:21;;;;;;;24.48;16.35;;;;;;;;;;5022956;28;20022;-50
2021/01/07 13:56:47;;;;;;;13.57;8.73;;;;;;;;;;5036155;28;20037;-53
2021/01/07 13:59:14;;;;;;;14.02;9.50;;;;;;;;;;5007600;28;20065;-53
2021/01/07 14:01:40;;;;;;;12.02;8.48;;;;;;;;;;5037800;28;20026;-54
2021/01/07 14:04:07;;;;;;;12.85;8.43;;;;;;;;;;5006835;28;20427;-50
2021/01/07 14:06:33;;;;;;;10.15;6.72;;;;;;;;;;5037869;28;20075;-50
2021/01/07 14:09:19;;;;;;;13.20;8.43;;;;;;;;;;5023747;28;20030;-50
2021/01/07 14:11:46;;;;;;;10.18;6.88;;;;;;;;;;5023182;28;20488;-53
2021/01/07 14:14:16;;;;;;;9.85;6.40;;;;;;;;;;5021508;28;20025;-52
2021/01/07 14:16:42;;;;;;;9.95;5.82;;;;;;;;;;5021739;28;20075;-52
2021/01/07 14:19:08;;;;;;;9.38;6.07;;;;;;;;;;5020047;28;20112;-49
2021/01/07 14:21:39;;;;;;;11.32;7.15;;;;;;;;;;5037403;28;20152;-50
2021/01/07 14:24:10;;;;;;;;;;;;;;;;;;5021826;28;20046;-53
2021/01/07 14:26:36;;;;;;;9.30;5.57;;;;;;;;;;5019701;28;19905;-50
2021/01/07 14:29:03;;;;;;;8.93;5.93;;;;;;;;;;4999882;28;20061;-53
2021/01/07 14:31:29;;;;;;;9.00;5.78;;;;;;;;;;5006430;28;20026;-53
2021/01/07 14:33:55;;;;;;;7.30;5.10;;;;;;;;;;5018969;28;20034;-53
2021/01/07 14:36:21;;;;;;;9.50;6.20;;;;;;;;;;5021104;28;20108;-51